Terminal Aerodrome Forecast
Issued by NWS

Home | Current Version | Previous Version | Text Only | Print | Product List | Glossary On
Versions: 1 2 3 4 5 6 7 8 9 10 11 12
163
FTUS45 KRIW 270520
TAFWRL
TAF
KWRL 270520Z 2706/2806 VRB06KT P6SM SCT080 BKN150
      TEMPO 2706/2710 13010KT
     FM280100 34009KT P6SM SCT060 BKN090=

USA.gov is the U.S. government's official web portal to all federal, state and local government web resources and services.